^^
Station Historical Data
Daily Summary for April 5, 2019 Units:  English    Metric   Both
« Previous Day
Next Day »
Daily Weekly Monthly Yearly Custom
  High: Low: Average:
Temperature: 53.3 °F 36.6 °F 43.2 °F
Dew Point: 44.4 °F 35.3 °F 39 °F
Humidity: 96% 67% 86%
Wind Speed: 24.0mph 0.0mph 8mph
Wind Gust: 27.0mph - -
Wind- - East
Pressure: 29.87 in 29.79 in -
Precipitation: 0.00 in    
Historical Graphs
 
 
Tabular Data for April 5, 2019
Time Temperature Dew Point Pressure Wind Wind Speed Wind Gust Humidity Rainfall Rate (Hourly) solar Conditions
00:04 41.0 °F 38.9 °F 29.82 in East 3.0 mph 6.0 mph 92% 0.00 in 0.00 W/m2
00:09 41.1 °F 39.0 °F 29.82 in ESE 4.0 mph 6.0 mph 92% 0.00 in 0.00 W/m2
00:14 41.1 °F 38.7 °F 29.81 in SE 4.0 mph 6.0 mph 91% 0.00 in 0.00 W/m2
00:19 41.1 °F 38.7 °F 29.81 in SE 4.0 mph 6.0 mph 91% 0.00 in 0.00 W/m2
00:24 41.3 °F 39.2 °F 29.81 in ESE 3.0 mph 7.0 mph 92% 0.00 in 0.00 W/m2
00:29 41.3 °F 38.9 °F 29.82 in SE 5.0 mph 7.0 mph 91% 0.00 in 0.00 W/m2
00:34 41.2 °F 38.8 °F 29.82 in SE 6.0 mph 7.0 mph 91% 0.00 in 0.00 W/m2
00:39 41.3 °F 38.9 °F 29.82 in SE 3.0 mph 7.0 mph 91% 0.00 in 0.00 W/m2
00:44 41.1 °F 38.7 °F 29.82 in SE 4.0 mph 7.0 mph 91% 0.00 in 0.00 W/m2
00:49 41.0 °F 38.6 °F 29.82 in SSE 4.0 mph 7.0 mph 91% 0.00 in 0.00 W/m2
00:54 40.9 °F 38.5 °F 29.82 in SE 3.0 mph 6.0 mph 91% 0.00 in 0.00 W/m2
00:59 41.0 °F 38.6 °F 29.82 in SE 5.0 mph 6.0 mph 91% 0.00 in 0.00 W/m2
01:04 41.0 °F 38.6 °F 29.82 in SE 4.0 mph 6.0 mph 91% 0.00 in 0.00 W/m2
01:09 40.8 °F 38.4 °F 29.82 in SSE 5.0 mph 6.0 mph 91% 0.00 in 0.00 W/m2
01:14 40.7 °F 38.3 °F 29.82 in SSE 5.0 mph 7.0 mph 91% 0.00 in 0.00 W/m2
01:19 40.7 °F 38.3 °F 29.82 in SSE 4.0 mph 7.0 mph 91% 0.00 in 0.00 W/m2
01:24 40.5 °F 38.1 °F 29.82 in SE 5.0 mph 7.0 mph 91% 0.00 in 0.00 W/m2
01:29 40.0 °F 37.6 °F 29.82 in SE 5.0 mph 8.0 mph 91% 0.00 in 0.00 W/m2
01:34 39.7 °F 37.3 °F 29.82 in SE 6.0 mph 8.0 mph 91% 0.00 in 0.00 W/m2
01:39 39.4 °F 37.0 °F 29.82 in SE 5.0 mph 7.0 mph 91% 0.00 in 0.00 W/m2
01:44 39.2 °F 37.1 °F 29.82 in SE 5.0 mph 7.0 mph 92% 0.00 in 0.00 W/m2
01:49 39.1 °F 37.0 °F 29.81 in SE 6.0 mph 7.0 mph 92% 0.00 in 0.00 W/m2
01:54 39.1 °F 37.2 °F 29.81 in ESE 7.0 mph 7.0 mph 93% 0.00 in 0.00 W/m2
01:59 39.2 °F 37.3 °F 29.81 in ESE 5.0 mph 7.0 mph 93% 0.00 in 0.00 W/m2
02:04 39.0 °F 36.9 °F 29.81 in ESE 5.0 mph 7.0 mph 92% 0.00 in 0.00 W/m2
02:09 38.8 °F 36.9 °F 29.81 in ESE 5.0 mph 5.0 mph 93% 0.00 in 0.00 W/m2
02:14 38.7 °F 36.9 °F 29.81 in ESE 4.0 mph 6.0 mph 93% 0.00 in 0.00 W/m2
02:19 38.7 °F 36.9 °F 29.82 in East 3.0 mph 6.0 mph 93% 0.00 in 0.00 W/m2
02:24 38.9 °F 37.3 °F 29.81 in ESE 4.0 mph 6.0 mph 94% 0.00 in 0.00 W/m2
02:29 39.0 °F 37.1 °F 29.81 in ESE 6.0 mph 6.0 mph 93% 0.00 in 0.00 W/m2
02:34 39.2 °F 37.6 °F 29.81 in SE 5.0 mph 7.0 mph 94% 0.00 in 0.00 W/m2
02:39 39.3 °F 37.7 °F 29.81 in SE 5.0 mph 7.0 mph 94% 0.00 in 0.00 W/m2
02:44 39.3 °F 37.7 °F 29.82 in ENE 2.0 mph 6.0 mph 94% 0.00 in 0.00 W/m2
02:49 38.6 °F 36.8 °F 29.82 in ENE 3.0 mph 5.0 mph 93% 0.00 in 0.00 W/m2
02:54 38.3 °F 36.5 °F 29.81 in East 2.0 mph 5.0 mph 93% 0.00 in 0.00 W/m2
02:59 37.9 °F 36.1 °F 29.81 in East 3.0 mph 5.0 mph 93% 0.00 in 0.00 W/m2
03:04 37.7 °F 35.9 °F 29.81 in East 3.0 mph 3.0 mph 93% 0.00 in 0.00 W/m2
03:09 37.9 °F 36.3 °F 29.81 in East 3.0 mph 3.0 mph 94% 0.00 in 0.00 W/m2
03:14 38.2 °F 36.6 °F 29.81 in East 3.0 mph 3.0 mph 94% 0.00 in 0.00 W/m2
03:19 38.2 °F 36.6 °F 29.81 in ESE 5.0 mph 7.0 mph 94% 0.00 in 0.00 W/m2
03:24 38.4 °F 36.8 °F 29.81 in East 5.0 mph 7.0 mph 94% 0.00 in 0.00 W/m2
03:29 38.3 °F 36.7 °F 29.80 in East 5.0 mph 7.0 mph 94% 0.00 in 0.00 W/m2
03:34 38.3 °F 36.7 °F 29.80 in East 5.0 mph 7.0 mph 94% 0.00 in 0.00 W/m2
03:39 38.1 °F 36.5 °F 29.80 in ESE 7.0 mph 8.0 mph 94% 0.00 in 0.00 W/m2
03:44 38.0 °F 36.4 °F 29.80 in ESE 4.0 mph 8.0 mph 94% 0.00 in 0.00 W/m2
03:49 38.0 °F 36.4 °F 29.80 in East 7.0 mph 8.0 mph 94% 0.00 in 0.00 W/m2
03:54 37.9 °F 36.3 °F 29.80 in ESE 4.0 mph 7.0 mph 94% 0.00 in 0.00 W/m2
03:59 37.9 °F 36.3 °F 29.80 in East 7.0 mph 7.0 mph 94% 0.00 in 0.00 W/m2
04:04 37.9 °F 36.3 °F 29.80 in ESE 7.0 mph 7.0 mph 94% 0.00 in 0.00 W/m2
04:09 38.1 °F 36.5 °F 29.80 in ESE 5.0 mph 8.0 mph 94% 0.00 in 0.00 W/m2
04:14 38.2 °F 36.6 °F 29.80 in ESE 5.0 mph 8.0 mph 94% 0.00 in 0.00 W/m2
04:19 38.3 °F 37.0 °F 29.80 in ESE 5.0 mph 7.0 mph 95% 0.00 in 0.00 W/m2
04:24 38.3 °F 37.0 °F 29.80 in East 5.0 mph 7.0 mph 95% 0.00 in 0.00 W/m2
04:29 38.0 °F 36.4 °F 29.80 in ESE 7.0 mph 7.0 mph 94% 0.00 in 0.00 W/m2
04:34 38.0 °F 36.4 °F 29.80 in East 6.0 mph 8.0 mph 94% 0.00 in 0.00 W/m2
04:39 38.1 °F 36.8 °F 29.80 in ESE 5.0 mph 8.0 mph 95% 0.00 in 0.00 W/m2
04:44 38.1 °F 36.8 °F 29.80 in ESE 3.0 mph 8.0 mph 95% 0.00 in 0.00 W/m2
04:49 38.2 °F 36.9 °F 29.81 in SE 2.0 mph 6.0 mph 95% 0.00 in 0.00 W/m2
04:54 38.1 °F 36.8 °F 29.81 in SSE 2.0 mph 5.0 mph 95% 0.00 in 0.00 W/m2
04:59 38.0 °F 36.7 °F 29.80 in SE 3.0 mph 4.0 mph 95% 0.00 in 0.00 W/m2
05:04 38.0 °F 36.7 °F 29.80 in ESE 1.0 mph 4.0 mph 95% 0.00 in 0.00 W/m2
05:09 38.2 °F 36.9 °F 29.80 in ENE 3.0 mph 5.0 mph 95% 0.00 in 0.00 W/m2
05:14 38.2 °F 36.9 °F 29.80 in ENE 5.0 mph 5.0 mph 95% 0.00 in 0.00 W/m2
05:19 38.2 °F 36.9 °F 29.80 in ENE 5.0 mph 7.0 mph 95% 0.00 in 0.00 W/m2
05:24 38.2 °F 36.9 °F 29.80 in ENE 7.0 mph 8.0 mph 95% 0.00 in 0.00 W/m2
05:29 37.9 °F 36.6 °F 29.80 in ENE 5.0 mph 8.0 mph 95% 0.00 in 0.00 W/m2
05:34 37.7 °F 36.4 °F 29.79 in East 7.0 mph 8.0 mph 95% 0.00 in 0.00 W/m2
05:39 37.8 °F 36.5 °F 29.79 in East 6.0 mph 8.0 mph 95% 0.00 in 0.00 W/m2
05:44 37.9 °F 36.6 °F 29.79 in East 7.0 mph 8.0 mph 95% 0.00 in 0.00 W/m2
05:49 38.0 °F 36.7 °F 29.79 in ESE 7.0 mph 8.0 mph 95% 0.00 in 0.00 W/m2
05:54 38.0 °F 36.7 °F 29.79 in SE 9.0 mph 9.0 mph 95% 0.00 in 0.00 W/m2
05:59 37.7 °F 36.4 °F 29.79 in ESE 4.0 mph 9.0 mph 95% 0.00 in 0.00 W/m2
06:04 37.6 °F 36.3 °F 29.80 in SE 4.0 mph 9.0 mph 95% 0.00 in 0.00 W/m2
06:09 37.5 °F 36.2 °F 29.80 in SE 5.0 mph 6.0 mph 95% 0.00 in 0.00 W/m2
06:14 37.7 °F 36.4 °F 29.80 in SE 3.0 mph 6.0 mph 95% 0.00 in 0.00 W/m2
06:19 37.7 °F 36.4 °F 29.80 in SE 2.0 mph 6.0 mph 95% 0.00 in 0.00 W/m2
06:24 37.7 °F 36.4 °F 29.80 in ESE 3.0 mph 5.0 mph 95% 0.00 in 0.00 W/m2
06:29 37.8 °F 36.5 °F 29.80 in SE 4.0 mph 5.0 mph 95% 0.00 in 0.00 W/m2
06:34 37.8 °F 36.5 °F 29.80 in ESE 5.0 mph 5.0 mph 95% 0.00 in 0.00 W/m2
06:39 37.9 °F 36.6 °F 29.79 in ESE 5.0 mph 7.0 mph 95% 0.00 in 0.00 W/m2
06:44 38.0 °F 36.7 °F 29.79 in ESE 5.0 mph 7.0 mph 95% 0.00 in 0.00 W/m2
06:49 37.9 °F 36.6 °F 29.79 in SE 7.0 mph 9.0 mph 95% 0.00 in 0.00 W/m2
06:54 37.8 °F 36.5 °F 29.80 in NE 1.0 mph 9.0 mph 95% 0.00 in 0.00 W/m2
06:59 37.8 °F 36.5 °F 29.79 in NE 1.0 mph 9.0 mph 95% 0.00 in 0.00 W/m2
07:04 37.8 °F 36.5 °F 29.79 in NE 1.0 mph 9.0 mph 95% 0.00 in 0.00 W/m2
07:09 37.6 °F 36.3 °F 29.79 in East 8.0 mph 8.0 mph 95% 0.00 in 0.00 W/m2
07:14 37.4 °F 36.1 °F 29.79 in ESE 7.0 mph 9.0 mph 95% 0.00 in 0.00 W/m2
07:19 37.5 °F 36.2 °F 29.79 in East 5.0 mph 9.0 mph 95% 0.00 in 0.00 W/m2
07:24 37.7 °F 36.4 °F 29.79 in East 5.0 mph 8.0 mph 95% 0.00 in 0.00 W/m2
07:29 37.7 °F 36.4 °F 29.79 in East 5.0 mph 7.0 mph 95% 0.00 in 5.00 W/m2
07:34 37.6 °F 36.3 °F 29.80 in ESE 7.0 mph 7.0 mph 95% 0.00 in 7.00 W/m2
07:39 37.6 °F 36.3 °F 29.79 in ESE 4.0 mph 7.0 mph 95% 0.00 in 12.00 W/m2
07:44 37.6 °F 36.3 °F 29.80 in SE 1.0 mph 8.0 mph 95% 0.00 in 18.00 W/m2
07:49 37.6 °F 36.3 °F 29.80 in East 3.0 mph 8.0 mph 95% 0.00 in 23.00 W/m2
07:54 37.6 °F 36.3 °F 29.80 in NE 2.0 mph 6.0 mph 95% 0.00 in 26.00 W/m2
07:59 37.5 °F 36.2 °F 29.80 in ENE 4.0 mph 6.0 mph 95% 0.00 in 35.00 W/m2
08:04 37.6 °F 36.3 °F 29.80 in ENE 3.0 mph 4.0 mph 95% 0.00 in 44.00 W/m2
08:09 37.7 °F 36.4 °F 29.81 in NE 4.0 mph 5.0 mph 95% 0.00 in 53.00 W/m2
08:14 37.8 °F 36.5 °F 29.80 in NE 5.0 mph 6.0 mph 95% 0.00 in 63.00 W/m2
08:19 38.0 °F 36.7 °F 29.80 in NE 4.0 mph 6.0 mph 95% 0.00 in 67.00 W/m2
08:24 38.4 °F 37.4 °F 29.80 in ENE 3.0 mph 6.0 mph 96% 0.00 in 114.00 W/m2
08:29 38.6 °F 37.6 °F 29.81 in ENE 5.0 mph 7.0 mph 96% 0.00 in 54.00 W/m2
08:34 38.7 °F 37.4 °F 29.81 in ENE 4.0 mph 7.0 mph 95% 0.00 in 77.00 W/m2
08:39 39.0 °F 38.0 °F 29.81 in ENE 3.0 mph 7.0 mph 96% 0.00 in 160.00 W/m2
08:44 39.5 °F 38.5 °F 29.81 in ENE 2.0 mph 5.0 mph 96% 0.00 in 160.00 W/m2
08:49 40.0 °F 39.0 °F 29.81 in ENE 4.0 mph 7.0 mph 96% 0.00 in 207.00 W/m2
08:54 40.6 °F 39.5 °F 29.81 in ENE 2.0 mph 7.0 mph 96% 0.00 in 213.00 W/m2
08:59 41.3 °F 40.2 °F 29.81 in ENE 1.0 mph 4.0 mph 96% 0.00 in 121.00 W/m2
09:04 41.6 °F 40.3 °F 29.81 in ENE 3.0 mph 4.0 mph 95% 0.00 in 121.00 W/m2
09:09 41.8 °F 40.5 °F 29.82 in ENE 3.0 mph 5.0 mph 95% 0.00 in 160.00 W/m2
09:14 42.2 °F 40.9 °F 29.82 in NE 3.0 mph 5.0 mph 95% 0.00 in 190.00 W/m2
09:19 43.1 °F 41.8 °F 29.82 in NE 4.0 mph 5.0 mph 95% 0.00 in 306.00 W/m2
09:24 43.8 °F 42.5 °F 29.81 in NE 5.0 mph 8.0 mph 95% 0.00 in 271.00 W/m2
09:29 44.0 °F 42.4 °F 29.81 in NE 7.0 mph 8.0 mph 94% 0.00 in 165.00 W/m2
09:34 44.2 °F 42.3 °F 29.82 in NNE 4.0 mph 7.0 mph 93% 0.00 in 232.00 W/m2
09:39 45.0 °F 43.1 °F 29.82 in Calm   7.0 mph 93% 0.00 in 320.00 W/m2
09:44 45.6 °F 43.4 °F 29.82 in NE 1.0 mph 5.0 mph 92% 0.00 in 306.00 W/m2
09:49 46.4 °F 43.9 °F 29.82 in Calm   3.0 mph 91% 0.00 in 332.00 W/m2
09:54 47.1 °F 44.0 °F 29.82 in South 2.0 mph 3.0 mph 89% 0.00 in 301.00 W/m2
09:59 47.5 °F 43.8 °F 29.82 in NE 2.0 mph 6.0 mph 87% 0.00 in 299.00 W/m2
10:04 47.9 °F 43.9 °F 29.82 in Calm   6.0 mph 86% 0.00 in 357.00 W/m2
10:09 48.4 °F 44.4 °F 29.82 in NE 5.0 mph 7.0 mph 86% 0.00 in 322.00 W/m2
10:14 48.5 °F 43.6 °F 29.82 in ENE 10.0 mph 11.0 mph 83% 0.00 in 276.00 W/m2
10:19 48.3 °F 43.4 °F 29.82 in ENE 2.0 mph 11.0 mph 83% 0.00 in 306.00 W/m2
10:24 48.7 °F 44.1 °F 29.82 in ENE 4.0 mph 10.0 mph 84% 0.00 in 318.00 W/m2
10:29 49.2 °F 43.9 °F 29.83 in NE 5.0 mph 8.0 mph 82% 0.00 in 376.00 W/m2
10:34 49.7 °F 44.1 °F 29.83 in ESE 3.0 mph 8.0 mph 81% 0.00 in 408.00 W/m2
10:39 49.6 °F 43.4 °F 29.83 in East 7.0 mph 9.0 mph 79% 0.00 in 439.00 W/m2
10:44 49.5 °F 43.3 °F 29.83 in ENE 3.0 mph 9.0 mph 79% 0.00 in 420.00 W/m2
10:49 49.8 °F 43.2 °F 29.84 in ENE 8.0 mph 9.0 mph 78% 0.00 in 371.00 W/m2
10:54 49.5 °F 42.6 °F 29.83 in ENE 8.0 mph 10.0 mph 77% 0.00 in 292.00 W/m2
10:59 49.2 °F 42.6 °F 29.84 in East 7.0 mph 10.0 mph 78% 0.00 in 274.00 W/m2
11:04 48.9 °F 42.3 °F 29.84 in East 2.0 mph 8.0 mph 78% 0.00 in 292.00 W/m2
11:09 48.7 °F 42.1 °F 29.84 in East 7.0 mph 9.0 mph 78% 0.00 in 290.00 W/m2
11:14 48.6 °F 42.4 °F 29.84 in East 6.0 mph 9.0 mph 79% 0.00 in 338.00 W/m2
11:19 48.8 °F 42.6 °F 29.84 in ENE 5.0 mph 10.0 mph 79% 0.00 in 378.00 W/m2
11:24 49.1 °F 42.9 °F 29.83 in NE 8.0 mph 10.0 mph 79% 0.00 in 443.00 W/m2
11:29 49.6 °F 43.0 °F 29.83 in NE 8.0 mph 11.0 mph 78% 0.00 in 408.00 W/m2
11:34 49.7 °F 43.1 °F 29.83 in NE 8.0 mph 11.0 mph 78% 0.00 in 439.00 W/m2
11:39 49.9 °F 43.0 °F 29.83 in ENE 5.0 mph 12.0 mph 77% 0.00 in 366.00 W/m2
11:44 50.2 °F 43.3 °F 29.83 in NE 7.0 mph 12.0 mph 77% 0.00 in 408.00 W/m2
11:49 50.6 °F 43.7 °F 29.83 in ENE 7.0 mph 10.0 mph 77% 0.00 in 417.00 W/m2
11:54 50.8 °F 43.5 °F 29.83 in ENE 11.0 mph 13.0 mph 76% 0.00 in 420.00 W/m2
11:59 51.1 °F 43.8 °F 29.83 in NE 7.0 mph 13.0 mph 76% 0.00 in 441.00 W/m2
12:04 51.4 °F 43.7 °F 29.83 in ENE 11.0 mph 12.0 mph 75% 0.00 in 452.00 W/m2
12:09 51.8 °F 44.1 °F 29.83 in North 5.0 mph 12.0 mph 75% 0.00 in 446.00 W/m2
12:14 52.1 °F 43.3 °F 29.83 in NE 9.0 mph 14.0 mph 72% 0.00 in 462.00 W/m2
12:19 52.2 °F 43.4 °F 29.84 in NE 7.0 mph 14.0 mph 72% 0.00 in 471.00 W/m2
12:24 52.3 °F 42.8 °F 29.84 in NE 7.0 mph 14.0 mph 70% 0.00 in 506.00 W/m2
12:29 52.1 °F 42.6 °F 29.84 in ENE 8.0 mph 13.0 mph 70% 0.00 in 446.00 W/m2
12:34 52.0 °F 42.5 °F 29.84 in East 13.0 mph 13.0 mph 70% 0.00 in 369.00 W/m2
12:39 51.8 °F 42.3 °F 29.84 in ENE 8.0 mph 14.0 mph 70% 0.00 in 374.00 W/m2
12:44 52.1 °F 42.2 °F 29.84 in ENE 8.0 mph 14.0 mph 69% 0.00 in 411.00 W/m2
12:49 52.0 °F 42.1 °F 29.84 in NE 12.0 mph 14.0 mph 69% 0.00 in 461.00 W/m2
12:54 52.5 °F 42.2 °F 29.84 in ENE 11.0 mph 16.0 mph 68% 0.00 in 654.00 W/m2
12:59 52.8 °F 42.5 °F 29.84 in NE 10.0 mph 16.0 mph 68% 0.00 in 638.00 W/m2
13:04 53.2 °F 42.9 °F 29.83 in NE 10.0 mph 15.0 mph 68% 0.00 in 584.00 W/m2
13:09 53.3 °F 42.6 °F 29.83 in ENE 10.0 mph 16.0 mph 67% 0.00 in 515.00 W/m2
13:14 52.9 °F 42.2 °F 29.83 in ENE 9.0 mph 16.0 mph 67% 0.00 in 489.00 W/m2
13:19 52.5 °F 42.2 °F 29.83 in NE 9.0 mph 14.0 mph 68% 0.00 in 566.00 W/m2
13:24 52.7 °F 42.4 °F 29.82 in NE 9.0 mph 15.0 mph 68% 0.00 in 584.00 W/m2
13:29 52.6 °F 42.7 °F 29.83 in NNE 11.0 mph 15.0 mph 69% 0.00 in 640.00 W/m2
13:34 52.8 °F 42.1 °F 29.83 in NE 13.0 mph 15.0 mph 67% 0.00 in 550.00 W/m2
13:39 52.4 °F 41.8 °F 29.82 in ENE 8.0 mph 15.0 mph 67% 0.00 in 515.00 W/m2
13:44 52.1 °F 41.9 °F 29.82 in NE 9.0 mph 15.0 mph 68% 0.00 in 513.00 W/m2
13:49 52.2 °F 42.0 °F 29.82 in ENE 11.0 mph 15.0 mph 68% 0.00 in 524.00 W/m2
13:54 52.4 °F 42.5 °F 29.82 in ENE 11.0 mph 14.0 mph 69% 0.00 in 617.00 W/m2
13:59 52.5 °F 42.6 °F 29.83 in NE 10.0 mph 15.0 mph 69% 0.00 in 422.00 W/m2
14:04 52.4 °F 42.5 °F 29.82 in NE 10.0 mph 15.0 mph 69% 0.00 in 478.00 W/m2
14:09 52.3 °F 42.0 °F 29.83 in NE 11.0 mph 14.0 mph 68% 0.00 in 364.00 W/m2
14:14 51.9 °F 41.3 °F 29.83 in ENE 9.0 mph 14.0 mph 67% 0.00 in 422.00 W/m2
14:19 51.6 °F 41.4 °F 29.83 in East 6.0 mph 14.0 mph 68% 0.00 in 299.00 W/m2
14:24 51.4 °F 41.2 °F 29.82 in NE 9.0 mph 14.0 mph 68% 0.00 in 281.00 W/m2
14:29 51.4 °F 41.6 °F 29.83 in NNE 6.0 mph 14.0 mph 69% 0.00 in 355.00 W/m2
14:34 51.8 °F 41.9 °F 29.83 in NNE 8.0 mph 14.0 mph 69% 0.00 in 415.00 W/m2
14:39 51.9 °F 41.7 °F 29.82 in NE 14.0 mph 16.0 mph 68% 0.00 in 385.00 W/m2
14:44 51.6 °F 41.4 °F 29.82 in NE 12.0 mph 16.0 mph 68% 0.00 in 308.00 W/m2
14:49 51.4 °F 41.2 °F 29.82 in ENE 8.0 mph 16.0 mph 68% 0.00 in 257.00 W/m2
14:54 51.2 °F 41.0 °F 29.82 in ENE 13.0 mph 16.0 mph 68% 0.00 in 230.00 W/m2
14:59 51.0 °F 40.8 °F 29.82 in NE 9.0 mph 15.0 mph 68% 0.00 in 229.00 W/m2
15:04 50.9 °F 41.1 °F 29.82 in NE 10.0 mph 15.0 mph 69% 0.00 in 193.00 W/m2
15:09 50.7 °F 40.9 °F 29.82 in NE 11.0 mph 13.0 mph 69% 0.00 in 171.00 W/m2
15:14 50.4 °F 40.6 °F 29.82 in East 6.0 mph 15.0 mph 69% 0.00 in 176.00 W/m2
15:19 50.2 °F 40.8 °F 29.82 in NE 6.0 mph 15.0 mph 70% 0.00 in 206.00 W/m2
15:24 49.9 °F 40.5 °F 29.82 in ENE 15.0 mph 17.0 mph 70% 0.00 in 234.00 W/m2
15:29 49.6 °F 40.6 °F 29.82 in NE 12.0 mph 17.0 mph 71% 0.00 in 306.00 W/m2
15:34 49.6 °F 40.9 °F 29.81 in NE 11.0 mph 18.0 mph 72% 0.00 in 323.00 W/m2
15:39 49.5 °F 40.5 °F 29.81 in ENE 14.0 mph 18.0 mph 71% 0.00 in 385.00 W/m2
15:44 49.2 °F 40.2 °F 29.81 in NE 14.0 mph 17.0 mph 71% 0.00 in 334.00 W/m2
15:49 49.1 °F 40.1 °F 29.81 in ENE 14.0 mph 17.0 mph 71% 0.00 in 346.00 W/m2
15:54 49.6 °F 40.9 °F 29.81 in East 7.0 mph 17.0 mph 72% 0.00 in 325.00 W/m2
15:59 49.7 °F 40.7 °F 29.82 in East 13.0 mph 15.0 mph 71% 0.00 in 297.00 W/m2
16:04 49.5 °F 40.5 °F 29.82 in ENE 11.0 mph 15.0 mph 71% 0.00 in 285.00 W/m2
16:09 49.5 °F 40.5 °F 29.82 in East 8.0 mph 15.0 mph 71% 0.00 in 299.00 W/m2
16:14 49.6 °F 40.9 °F 29.82 in NE 8.0 mph 14.0 mph 72% 0.00 in 274.00 W/m2
16:19 49.4 °F 40.4 °F 29.81 in ENE 12.0 mph 17.0 mph 71% 0.00 in 265.00 W/m2
16:24 49.1 °F 40.8 °F 29.81 in NE 9.0 mph 17.0 mph 73% 0.00 in 264.00 W/m2
16:29 49.0 °F 40.7 °F 29.80 in East 10.0 mph 18.0 mph 73% 0.00 in 315.00 W/m2
16:34 49.2 °F 40.9 °F 29.81 in NE 8.0 mph 20.0 mph 73% 0.00 in 580.00 W/m2
16:39 49.5 °F 40.8 °F 29.81 in NE 14.0 mph 21.0 mph 72% 0.00 in 359.00 W/m2
16:44 49.4 °F 40.7 °F 29.82 in NE 8.0 mph 21.0 mph 72% 0.00 in 392.00 W/m2
16:49 48.8 °F 40.5 °F 29.82 in ENE 11.0 mph 17.0 mph 73% 0.00 in 246.00 W/m2
16:54 48.3 °F 40.4 °F 29.83 in ENE 8.0 mph 16.0 mph 74% 0.00 in 229.00 W/m2
16:59 48.1 °F 40.2 °F 29.83 in East 13.0 mph 17.0 mph 74% 0.00 in 366.00 W/m2
17:04 47.7 °F 39.8 °F 29.83 in ESE 10.0 mph 19.0 mph 74% 0.00 in 292.00 W/m2
17:09 47.3 °F 39.8 °F 29.82 in East 16.0 mph 19.0 mph 75% 0.00 in 348.00 W/m2
17:14 47.0 °F 39.8 °F 29.83 in NE 9.0 mph 21.0 mph 76% 0.00 in 316.00 W/m2
17:19 47.0 °F 40.2 °F 29.83 in ENE 13.0 mph 21.0 mph 77% 0.00 in 295.00 W/m2
17:24 46.9 °F 39.7 °F 29.82 in ENE 14.0 mph 18.0 mph 76% 0.00 in 278.00 W/m2
17:29 46.7 °F 40.2 °F 29.83 in ENE 10.0 mph 17.0 mph 78% 0.00 in 262.00 W/m2
17:34 46.7 °F 40.2 °F 29.83 in ENE 7.0 mph 19.0 mph 78% 0.00 in 292.00 W/m2
17:39 46.8 °F 40.3 °F 29.82 in East 13.0 mph 19.0 mph 78% 0.00 in 202.00 W/m2
17:44 46.8 °F 40.3 °F 29.82 in ENE 14.0 mph 19.0 mph 78% 0.00 in 183.00 W/m2
17:49 46.8 °F 40.6 °F 29.82 in East 13.0 mph 19.0 mph 79% 0.00 in 385.00 W/m2
17:54 47.3 °F 40.8 °F 29.82 in East 10.0 mph 19.0 mph 78% 0.00 in 334.00 W/m2
17:59 47.6 °F 41.1 °F 29.83 in NE 13.0 mph 19.0 mph 78% 0.00 in 420.00 W/m2
18:04 48.2 °F 41.3 °F 29.82 in ENE 8.0 mph 20.0 mph 77% 0.00 in 381.00 W/m2
18:09 47.9 °F 40.4 °F 29.82 in ENE 16.0 mph 20.0 mph 75% 0.00 in 142.00 W/m2
18:14 47.5 °F 40.6 °F 29.82 in East 16.0 mph 19.0 mph 77% 0.00 in 313.00 W/m2
18:19 47.3 °F 40.5 °F 29.82 in ENE 17.0 mph 19.0 mph 77% 0.00 in 204.00 W/m2
18:24 46.6 °F 40.1 °F 29.83 in East 14.0 mph 19.0 mph 78% 0.00 in 137.00 W/m2
18:29 46.2 °F 40.0 °F 29.83 in ENE 18.0 mph 19.0 mph 79% 0.00 in 160.00 W/m2
18:34 45.7 °F 39.9 °F 29.83 in East 14.0 mph 20.0 mph 80% 0.00 in 120.00 W/m2
18:39 45.6 °F 39.8 °F 29.84 in East 9.0 mph 20.0 mph 80% 0.00 in 135.00 W/m2
18:44 45.5 °F 40.0 °F 29.84 in East 11.0 mph 16.0 mph 81% 0.00 in 95.00 W/m2
18:49 45.2 °F 39.7 °F 29.84 in East 14.0 mph 19.0 mph 81% 0.00 in 95.00 W/m2
18:54 45.0 °F 39.8 °F 29.84 in East 14.0 mph 19.0 mph 82% 0.00 in 88.00 W/m2
18:59 44.7 °F 39.5 °F 29.84 in East 15.0 mph 18.0 mph 82% 0.00 in 70.00 W/m2
19:04 44.3 °F 39.2 °F 29.84 in ESE 13.0 mph 20.0 mph 82% 0.00 in 54.00 W/m2
19:09 43.9 °F 39.1 °F 29.84 in East 17.0 mph 23.0 mph 83% 0.00 in 47.00 W/m2
19:14 43.5 °F 39.0 °F 29.84 in ENE 8.0 mph 23.0 mph 84% 0.00 in 47.00 W/m2
19:19 43.4 °F 38.9 °F 29.84 in ENE 8.0 mph 23.0 mph 84% 0.00 in 40.00 W/m2
19:24 43.1 °F 38.6 °F 29.84 in ENE 8.0 mph 23.0 mph 84% 0.00 in 33.00 W/m2
19:29 42.6 °F 38.1 °F 29.84 in ENE 16.0 mph 19.0 mph 84% 0.00 in 33.00 W/m2
19:34 42.3 °F 38.1 °F 29.84 in East 17.0 mph 19.0 mph 85% 0.00 in 28.00 W/m2
19:39 42.0 °F 38.1 °F 29.84 in East 17.0 mph 18.0 mph 86% 0.00 in 23.00 W/m2
19:44 41.7 °F 37.8 °F 29.84 in East 11.0 mph 23.0 mph 86% 0.00 in 21.00 W/m2
19:49 41.4 °F 37.8 °F 29.85 in ENE 12.0 mph 23.0 mph 87% 0.00 in 18.00 W/m2
19:54 41.3 °F 37.7 °F 29.84 in East 17.0 mph 20.0 mph 87% 0.00 in 12.00 W/m2
19:59 41.1 °F 37.8 °F 29.84 in NE 14.0 mph 19.0 mph 88% 0.00 in 11.00 W/m2
20:04 40.9 °F 37.6 °F 29.84 in ENE 12.0 mph 19.0 mph 88% 0.00 in 7.00 W/m2
20:09 40.7 °F 37.4 °F 29.84 in NE 6.0 mph 19.0 mph 88% 0.00 in 5.00 W/m2
20:14 40.5 °F 37.5 °F 29.84 in ENE 12.0 mph 19.0 mph 89% 0.00 in 0.00 W/m2
20:19 40.3 °F 37.3 °F 29.84 in ENE 12.0 mph 19.0 mph 89% 0.00 in 0.00 W/m2
20:24 40.1 °F 37.1 °F 29.84 in ENE 7.0 mph 17.0 mph 89% 0.00 in 0.00 W/m2
20:29 40.0 °F 37.0 °F 29.84 in ENE 9.0 mph 17.0 mph 89% 0.00 in 0.00 W/m2
20:34 39.9 °F 37.2 °F 29.84 in East 14.0 mph 20.0 mph 90% 0.00 in 0.00 W/m2
20:39 39.7 °F 37.0 °F 29.84 in East 9.0 mph 20.0 mph 90% 0.00 in 0.00 W/m2
20:44 39.6 °F 36.9 °F 29.84 in ENE 11.0 mph 18.0 mph 90% 0.00 in 0.00 W/m2
20:49 39.4 °F 37.0 °F 29.84 in NE 10.0 mph 21.0 mph 91% 0.00 in 0.00 W/m2
20:54 39.3 °F 36.9 °F 29.84 in ENE 10.0 mph 22.0 mph 91% 0.00 in 0.00 W/m2
20:59 39.2 °F 36.8 °F 29.85 in ENE 11.0 mph 22.0 mph 91% 0.00 in 0.00 W/m2
21:04 39.1 °F 36.7 °F 29.85 in East 11.0 mph 19.0 mph 91% 0.00 in 0.00 W/m2
21:09 39.1 °F 37.0 °F 29.86 in East 9.0 mph 19.0 mph 92% 0.00 in 0.00 W/m2
21:14 38.9 °F 36.8 °F 29.86 in ENE 10.0 mph 15.0 mph 92% 0.00 in 0.00 W/m2
21:19 38.8 °F 36.7 °F 29.86 in NE 10.0 mph 16.0 mph 92% 0.00 in 0.00 W/m2
21:24 38.7 °F 36.6 °F 29.86 in NE 14.0 mph 16.0 mph 92% 0.00 in 0.00 W/m2
21:29 38.7 °F 36.6 °F 29.86 in ENE 9.0 mph 19.0 mph 92% 0.00 in 0.00 W/m2
21:34 38.6 °F 36.8 °F 29.86 in East 16.0 mph 20.0 mph 93% 0.00 in 0.00 W/m2
21:39 38.4 °F 36.6 °F 29.86 in ENE 11.0 mph 23.0 mph 93% 0.00 in 0.00 W/m2
21:44 38.4 °F 36.6 °F 29.86 in ENE 13.0 mph 23.0 mph 93% 0.00 in 0.00 W/m2
21:49 38.3 °F 36.5 °F 29.86 in East 13.0 mph 18.0 mph 93% 0.00 in 0.00 W/m2
21:54 38.2 °F 36.4 °F 29.86 in ENE 13.0 mph 18.0 mph 93% 0.00 in 0.00 W/m2
21:59 38.2 °F 36.6 °F 29.86 in ENE 15.0 mph 22.0 mph 94% 0.00 in 0.00 W/m2
22:04 38.1 °F 36.5 °F 29.86 in ENE 16.0 mph 22.0 mph 94% 0.00 in 0.00 W/m2
22:09 38.0 °F 36.4 °F 29.86 in East 17.0 mph 24.0 mph 94% 0.00 in 0.00 W/m2
22:14 37.9 °F 36.3 °F 29.86 in East 11.0 mph 24.0 mph 94% 0.00 in 0.00 W/m2
22:19 37.8 °F 36.2 °F 29.85 in ENE 9.0 mph 23.0 mph 94% 0.00 in 0.00 W/m2
22:24 37.8 °F 36.2 °F 29.86 in East 19.0 mph 23.0 mph 94% 0.00 in 0.00 W/m2
22:29 37.8 °F 36.2 °F 29.86 in East 13.0 mph 23.0 mph 94% 0.00 in 0.00 W/m2
22:34 37.7 °F 36.4 °F 29.86 in East 11.0 mph 20.0 mph 95% 0.00 in 0.00 W/m2
22:39 37.6 °F 36.3 °F 29.86 in ENE 11.0 mph 17.0 mph 95% 0.00 in 0.00 W/m2
22:44 37.5 °F 35.9 °F 29.86 in ENE 12.0 mph 18.0 mph 94% 0.00 in 0.00 W/m2
22:49 37.4 °F 36.1 °F 29.86 in East 19.0 mph 22.0 mph 95% 0.00 in 0.00 W/m2
22:54 37.2 °F 35.9 °F 29.87 in East 24.0 mph 24.0 mph 95% 0.00 in 0.00 W/m2
22:59 37.1 °F 35.8 °F 29.86 in ENE 21.0 mph 24.0 mph 95% 0.00 in 0.00 W/m2
23:04 37.1 °F 35.8 °F 29.86 in ENE 12.0 mph 24.0 mph 95% 0.00 in 0.00 W/m2
23:09 37.0 °F 35.7 °F 29.86 in ENE 14.0 mph 24.0 mph 95% 0.00 in 0.00 W/m2
23:14 37.0 °F 35.7 °F 29.86 in East 14.0 mph 18.0 mph 95% 0.00 in 0.00 W/m2
23:19 36.9 °F 35.6 °F 29.86 in ENE 12.0 mph 19.0 mph 95% 0.00 in 0.00 W/m2
23:24 36.9 °F 35.6 °F 29.86 in East 9.0 mph 19.0 mph 95% 0.00 in 0.00 W/m2
23:29 36.9 °F 35.6 °F 29.86 in East 9.0 mph 19.0 mph 95% 0.00 in 0.00 W/m2
23:34 36.8 °F 35.5 °F 29.86 in East 9.0 mph 19.0 mph 95% 0.00 in 0.00 W/m2
23:39 36.7 °F 35.4 °F 29.86 in East 13.0 mph 27.0 mph 95% 0.00 in 0.00 W/m2
23:44 36.7 °F 35.4 °F 29.86 in East 13.0 mph 27.0 mph 95% 0.00 in 0.00 W/m2
23:49 36.7 °F 35.4 °F 29.86 in ENE 9.0 mph 20.0 mph 95% 0.00 in 0.00 W/m2
23:54 36.6 °F 35.3 °F 29.86 in East 16.0 mph 20.0 mph 95% 0.00 in 0.00 W/m2
23:59 36.7 °F 35.4 °F 29.86 in East 11.0 mph 17.0 mph 95% 0.00 in 0.00 W/m2
Bismarck, North Dakota, USA
Compliments of Weather Underground - 4 mb